Bookmark and Share
Track history (hours):
 

MSC Alexa

Last reported at 2014-Apr-16 21:26 UTC. Time now 2014-Apr-16 22:19 UTC.
Position N 51°20' E 004°20'.

Length 243 m; draft 10.8 m.

Type: Ship (hazmat cat A). MMSI: 356904000.

NotesDate/timePositionNaut miles runAvg speedWind from/ knotsBaromVisibWave heightAir tempDewpointWater temp
2014-Apr-16 21:26N 51°20' E 004°20'0 0.0
2014-Apr-16 20:31N 51°20' E 004°20'0 0.0
2014-Apr-16 19:31N 51°20' E 004°20'0 0.0
2014-Apr-16 18:27N 51°20' E 004°20'0 0.0
2014-Apr-16 16:26N 51°20' E 004°20'0 0.0
2014-Apr-16 15:29N 51°20' E 004°20'0 0.0
2014-Apr-16 14:29N 51°20' E 004°20'0 0.0
2014-Apr-16 13:25N 51°20' E 004°20'0 0.0
2014-Apr-16 12:28N 51°20' E 004°20'0 0.0
2014-Apr-16 11:33N 51°20' E 004°20'0 0.0
2014-Apr-16 10:33N 51°20' E 004°20'0 0.0
2014-Apr-16 09:32N 51°20' E 004°20'0 0.0
2014-Apr-16 08:32N 51°20' E 004°20'0 0.0
2014-Apr-16 07:28N 51°20' E 004°20'0 0.0
2014-Apr-16 06:31N 51°20' E 004°20'0 0.0
2014-Apr-16 05:31N 51°20' E 004°20'0 0.0
2014-Apr-16 04:30N 51°20' E 004°20'0 0.0
2014-Apr-16 03:33N 51°20' E 004°20'1 0.9
2014-Apr-16 02:33N 51°19' E 004°19'2 1.7
2014-Apr-16 01:34N 51°21' E 004°17'0 0.1
2014-Apr-16 00:34N 51°21' E 004°17'6 5.6
2014-Apr-15 23:33N 51°22' E 004°08'7 6.9
2014-Apr-15 22:33N 51°25' E 003°58'1010.1
2014-Apr-15 21:34N 51°26' E 003°42'1211.5
2014-Apr-15 20:33N 51°24' E 003°23'1212.5
2014-Apr-15 19:34N 51°24' E 003°03'1211.5
2014-Apr-15 18:33N 51°35' E 003°09'1312.5
2014-Apr-15 17:30N 51°48' E 003°17'102 2.9
2014-Apr-14 06:33N 53°19' E 004°31'1311.9
2014-Apr-14 05:29N 53°31' E 004°37'10613.2
2014-Apr-13 21:26N 55°08' E 005°52'1011.4
2014-Apr-13 20:33N 55°17' E 006°01'1211.4
2014-Apr-13 19:33N 55°27' E 006°10'18411.2
2014-Apr-13 03:12N 57°42' E 009°55'6 8.9
2014-Apr-13 02:33N 57°44' E 010°05'9 8.4
2014-Apr-13 01:32N 57°47' E 010°20'9 8.9
2014-Apr-13 00:33N 57°49' E 010°36'8 8.4
2014-Apr-12 23:33N 57°46' E 010°50'1010.1
2014-Apr-12 22:33N 57°39' E 011°05'1110.6
2014-Apr-12 21:33N 57°32' E 011°18'1111.0
2014-Apr-12 20:33N 57°22' E 011°29'1111.3
2014-Apr-12 19:33N 57°12' E 011°38'1111.4
2014-Apr-12 18:33N 57°01' E 011°43'1111.1
2014-Apr-12 17:33N 56°50' E 011°50'13613.5
2014-Apr-12 07:25N 54°38' E 010°55'1416.0
2014-Apr-12 06:33N 54°34' E 011°18'1716.5
2014-Apr-12 05:33N 54°27' E 011°44'1615.6
2014-Apr-12 04:33N 54°27' E 012°11'1414.0
2014-Apr-12 03:33N 54°39' E 012°24'1312.5
2014-Apr-12 02:33N 54°46' E 012°42'1212.2
2014-Apr-12 01:33N 54°51' E 013°01'1211.9
2014-Apr-12 00:33N 54°54' E 013°21'1111.3
2014-Apr-11 23:33N 54°52' E 013°40'1211.8
2014-Apr-11 22:33N 54°46' E 013°58'1212.0
2014-Apr-11 21:33N 54°39' E 014°15'1311.8
2014-Apr-11 20:26N 54°39' E 014°38'1112.0
2014-Apr-11 19:29N 54°41' E 014°58'10511.7
2014-Apr-11 10:34N 55°02' E 017°56'1511.8
2014-Apr-11 09:17N 55°08' E 018°20'911.7
2014-Apr-11 08:33N 55°11' E 018°34'1211.7
2014-Apr-11 07:33N 55°15' E 018°53'1211.3
2014-Apr-11 06:32N 55°20' E 019°12'1010.2
2014-Apr-11 05:33N 55°23' E 019°29'22 0.6
2014-Apr-09 15:33N 55°01' E 019°35'1717.4
2014-Apr-09 14:34N 54°49' E 019°13'1717.0
2014-Apr-09 13:34N 54°36' E 018°54'1312.5
2014-Apr-09 12:34N 54°32' E 018°34'2 1.7
2014-Apr-09 11:32N 54°33' E 018°31'0 0.0
2014-Apr-09 10:31N 54°33' E 018°31'0 0.0
2014-Apr-09 09:31N 54°33' E 018°31'0 0.0
2014-Apr-09 08:34N 54°33' E 018°31'0 0.0
2014-Apr-09 07:33N 54°33' E 018°31'0 0.0
2014-Apr-09 06:33N 54°33' E 018°31'0 0.0
2014-Apr-09 05:32N 54°33' E 018°31'0 0.0
2014-Apr-09 04:32N 54°33' E 018°31'0 0.0
2014-Apr-09 03:31N 54°33' E 018°31'0 0.0
2014-Apr-09 02:31N 54°33' E 018°31'0 0.0
2014-Apr-09 01:31N 54°33' E 018°31'0 0.0
2014-Apr-09 00:33N 54°33' E 018°31'0 0.0
2014-Apr-08 23:33N 54°33' E 018°31'0 0.0
2014-Apr-08 22:32N 54°33' E 018°31'0 0.0
2014-Apr-08 21:32N 54°33' E 018°31'0 0.0
2014-Apr-08 20:31N 54°33' E 018°31'0 0.0
2014-Apr-08 19:31N 54°33' E 018°31'0 0.0
2014-Apr-08 18:33N 54°33' E 018°31'0 0.0
2014-Apr-08 17:33N 54°33' E 018°31'0 0.0
2014-Apr-08 16:33N 54°33' E 018°31'0 0.0
2014-Apr-08 15:32N 54°33' E 018°31'0 0.0
2014-Apr-08 14:32N 54°33' E 018°31'0 0.0
2014-Apr-08 13:31N 54°33' E 018°31'0 0.0
2014-Apr-08 12:31N 54°33' E 018°31'0 0.0
2014-Apr-08 11:33N 54°33' E 018°31'0 0.0
2014-Apr-08 10:33N 54°33' E 018°31'0 0.0
2014-Apr-08 09:33N 54°33' E 018°31'0 0.0
2014-Apr-08 08:32N 54°33' E 018°31'0 0.0
2014-Apr-08 07:32N 54°33' E 018°31'0 0.0
2014-Apr-08 06:31N 54°33' E 018°31'0 0.0
2014-Apr-08 05:31N 54°33' E 018°31'0 0.0
2014-Apr-08 04:33N 54°33' E 018°31'0 0.0
2014-Apr-08 03:33N 54°33' E 018°31'1 1.4
2014-Apr-08 02:33N 54°32' E 018°33'8 8.5
2014-Apr-08 01:33N 54°32' E 018°48'1211.8
2014-Apr-08 00:33N 54°43' E 018°58'1111.1
2014-Apr-07 23:33N 54°53' E 018°52'1111.3
2014-Apr-07 22:33N 54°57' E 018°34'1211.9
2014-Apr-07 21:33N 54°58' E 018°13'1212.2
2014-Apr-07 20:33N 54°58' E 017°52'12213.6
2014-Apr-07 11:33N 54°36' E 014°23'1716.7
2014-Apr-07 10:33N 54°44' E 013°58'1817.6
2014-Apr-07 09:34N 54°53' E 013°32'1717.5
2014-Apr-07 08:33N 54°49' E 013°02'1717.3
2014-Apr-07 07:33N 54°42' E 012°34'1616.0
2014-Apr-07 06:33N 54°31' E 012°14'1514.6
2014-Apr-07 05:32N 54°25' E 011°51'1616.8
2014-Apr-07 04:33N 54°31' E 011°25'  

Dump ship's entire track history

sailing weather and tide predictions

MSC Alexa — 3FPP6 — position and weather